Flight Track Log - Related Links

Times and Time Zones

All times are in EDT time to prevent confusion due to time zone crossing. See the N3421E flight status page for this flight to view local times or setup timezone preferences in your user account.

Time Position Orientation Groundspeed Altitude Reporting Facility
EDT Latitude Longitude Course Direction KTS MPH feet Rate Location/Type
Wed 08:42:28 PM 43.4033 -89.9897 296° West 89 102 4,300  Level Minneapolis Center
Wed 08:43:30 PM 43.4136 -90.0183 296° West 83 96 4,300 48 Level Minneapolis Center
Wed 08:44:32 PM 43.4258 -90.0489 299° West 83 96 4,400 48 Climbing Minneapolis Center
Wed 08:45:34 PM 43.4367 -90.0803 295° West 87 100 4,400 48 Level Minneapolis Center
Wed 08:46:36 PM 43.4489 -90.1103 299° West 87 100 4,500  Climbing Minneapolis Center
Wed 08:47:50 PM 43.4608 -90.1367 302° West 83 96 4,400  Descending Minneapolis Center
Wed 08:48:53 PM 43.4750 -90.1722 299° West 82 94 4,500  Climbing Minneapolis Center
Wed 08:49:55 PM 43.4858 -90.2031 296° West 87 100 4,400 -48 Descending Minneapolis Center
Wed 08:50:57 PM 43.4978 -90.2342 298° West 88 101 4,400  Level Minneapolis Center
Wed 08:51:59 PM 43.5053 -90.2619 290° West 81 93 4,400  Level Minneapolis Center
Wed 08:53:01 PM 43.5150 -90.2925 294° West 82 94 4,400  Level Minneapolis Center
Wed 08:54:03 PM 43.5250 -90.3228 294° West 84 97 4,400 44 Level Minneapolis Center
Wed 08:55:17 PM 43.5328 -90.3542 289° West 84 97 4,500  Climbing Minneapolis Center
Wed 08:56:19 PM 43.5406 -90.3903 287° West 83 96 4,400 -48 Descending Minneapolis Center
Wed 08:57:21 PM 43.5525 -90.4189 300° West 85 98 4,400 48 Level Minneapolis Center
Wed 08:58:23 PM 43.5633 -90.4483 297° West 82 94 4,500  Climbing Minneapolis Center
Wed 08:59:25 PM 43.5719 -90.4781 292° West 80 92 4,400 -95 Descending Minneapolis Center
Wed 09:00:29 PM 43.5847 -90.5069 301° West 84 97 4,300  Descending Minneapolis Center
Wed 09:01:31 PM 43.5944 -90.5364 295° West 81 93 4,400  Climbing Minneapolis Center
Wed 09:02:33 PM 43.6081 -90.5656 303° West 86 99 4,300  Descending Minneapolis Center
Wed 09:03:35 PM 43.6222 -90.5950 304° West 88 101 4,400  Climbing Minneapolis Center
Wed 09:04:37 PM 43.6328 -90.6211 299° West 82 94 4,300  Descending Minneapolis Center
Wed 09:05:39 PM 43.6469 -90.6489 305° West 85 98 4,400 97 Climbing Minneapolis Center
Wed 09:06:41 PM 43.6564 -90.6772 295° West 78 90 4,500 48 Climbing Minneapolis Center
Wed 09:07:43 PM 43.6642 -90.7064 290° West 78 90 4,500 -48 Level Minneapolis Center
Wed 09:08:45 PM 43.6769 -90.7353 301° West 83 96 4,400  Descending Minneapolis Center
Wed 09:09:47 PM 43.6900 -90.7636 303° West 85 98 4,500 48 Climbing Minneapolis Center
Wed 09:10:49 PM 43.7006 -90.7894 299° West 82 94 4,500  Level Minneapolis Center
Wed 09:11:51 PM 43.7078 -90.8194 288° West 79 91 4,500 48 Level Minneapolis Center
Wed 09:12:53 PM 43.7158 -90.8461 293° West 80 92 4,600 48 Climbing Minneapolis Center
Wed 09:13:55 PM 43.7328 -90.8153 53° Northeast 118 136 4,600 -48 Level Minneapolis Center
Wed 09:14:57 PM 43.7272 -90.7697 100° East 116 133 4,500 -97 Descending Minneapolis Center
Wed 09:15:59 PM 43.7181 -90.7264 106° East 113 130 4,400 -44 Descending Minneapolis Center
Wed 09:17:13 PM 43.7075 -90.6853 110° East 110 127 4,400 -44 Level Minneapolis Center
Wed 09:18:16 PM 43.6869 -90.6478 127° Southeast 103 119 4,300 -48 Descending Minneapolis Center
Wed 09:19:18 PM 43.6725 -90.6114 119° Southeast 103 119 4,300  Level Minneapolis Center
Wed 09:20:20 PM 43.6606 -90.5742 114° Southeast 102 117 4,300  Level Minneapolis Center
Wed 09:21:22 PM 43.6478 -90.5364 115° Southeast 105 121 4,300 48 Level Minneapolis Center
Wed 09:22:24 PM 43.6367 -90.4981 112° Southeast 111 128 4,400 48 Climbing Minneapolis Center
Wed 09:23:26 PM 43.6261 -90.4572 110° East 110 127 4,400  Level Minneapolis Center
Wed 09:24:28 PM 43.6189 -90.4133 103° East 112 129 4,400 -49 Level Minneapolis Center
Wed 09:25:29 PM 43.6144 -90.3686 98° East 113 130 4,300 -98 Descending Minneapolis Center

Login

Don't have an account? Register now (free) for customized features, flight alerts, and more!